PWSweather.com
Personal Weather Stations
Station Observations
PICKERING
North Yorkshire, PickeringGB

North YorkshirePickeringGB

Lat: 54.2494, Lon: -0.7725

Elevation: 192

Station Type: Oregon Scientific WMR100

http://www.yorkshirewalker.co.uk/weather/

High Low Average
Temperature 73.8°F23.2°C 52.3°F11.3°C 60.8°F16.0°C
Dew Point 59.0°F15.0°C 44.6°F7.0°C 50.1°F10.1°C
Winds 13.4 mph 21.6 kmh 0.1 mph 0.2 kmh 5.0 mph SW8.0 kmh SW
Wind Gusts 24.2 mph38.9 kmh 0.9 mph1.4 kmh 9.0 mph14.5 kmh
Humidity 84% 48% 68%
Pressure 30.09 in1019.0 mb 29.77 in1008.1 mb -
Precipitation 0.17 in4.3 mm - -
Hour Temp Dew Point Humidity Winds Wind Gusts Pressure Precip Precip Rate Daily Precip Total
12:00 AM 53.6°F12.0°C 46.4°F8.0°C 72% 4.8 mph SSW7.7 kmh SSW 9.8 mph15.8 kmh 29.92 in1013.2 mb 0.00 in0.0 mm 0.00 in0.0 mm 0.00 in0.0 mm
12:05 AM 53.6°F12.0°C 46.4°F8.0°C 72% 3.6 mph SSW5.8 kmh SSW 6.5 mph10.5 kmh 29.92 in1013.2 mb 0.00 in0.0 mm 0.00 in0.0 mm 0.00 in0.0 mm
12:10 AM 53.8°F12.1°C 46.4°F8.0°C 72% 3.8 mph SSW6.1 kmh SSW 6.0 mph9.7 kmh 29.92 in1013.2 mb 0.00 in0.0 mm 0.00 in0.0 mm 0.00 in0.0 mm
12:15 AM 53.8°F12.1°C 46.4°F8.0°C 73% 4.0 mph S6.4 kmh S 6.0 mph9.7 kmh 29.92 in1013.2 mb 0.00 in0.0 mm 0.00 in0.0 mm 0.00 in0.0 mm
12:20 AM 53.6°F12.0°C 46.4°F8.0°C 73% 4.2 mph SSE6.8 kmh SSE 6.5 mph10.5 kmh 29.92 in1013.2 mb 0.00 in0.0 mm 0.00 in0.0 mm 0.00 in0.0 mm
12:25 AM 53.8°F12.1°C 46.4°F8.0°C 73% 3.3 mph S5.3 kmh S 6.5 mph10.5 kmh 29.89 in1012.2 mb 0.00 in0.0 mm 0.00 in0.0 mm 0.00 in0.0 mm
12:30 AM 53.8°F12.1°C 46.4°F8.0°C 73% 2.8 mph SW4.5 kmh SW 4.3 mph6.9 kmh 29.89 in1012.2 mb 0.00 in0.0 mm 0.00 in0.0 mm 0.00 in0.0 mm
12:35 AM 53.8°F12.1°C 46.4°F8.0°C 72% 3.9 mph SW6.3 kmh SW 5.6 mph9.0 kmh 29.89 in1012.2 mb 0.00 in0.0 mm 0.00 in0.0 mm 0.00 in0.0 mm
12:40 AM 53.6°F12.0°C 46.4°F8.0°C 73% 4.8 mph SW7.7 kmh SW 7.8 mph12.6 kmh 29.89 in1012.2 mb 0.00 in0.0 mm 0.00 in0.0 mm 0.00 in0.0 mm
12:45 AM 53.2°F11.8°C 44.6°F7.0°C 73% 4.3 mph SW6.9 kmh SW 7.8 mph12.6 kmh 29.89 in1012.2 mb 0.00 in0.0 mm 0.00 in0.0 mm 0.00 in0.0 mm
12:50 AM 53.1°F11.7°C 44.6°F7.0°C 74% 3.6 mph SSW5.8 kmh SSW 6.3 mph10.1 kmh 29.89 in1012.2 mb 0.00 in0.0 mm 0.00 in0.0 mm 0.00 in0.0 mm
12:55 AM 52.9°F11.6°C 46.4°F8.0°C 75% 3.4 mph S5.5 kmh S 5.4 mph8.7 kmh 29.89 in1012.2 mb 0.06 in1.5 mm 0.72 in18.3 mm 0.06 in1.5 mm
01:00 AM 52.7°F11.5°C 46.4°F8.0°C 75% 3.7 mph S6.0 kmh S 6.3 mph10.1 kmh 29.89 in1012.2 mb 0.06 in1.5 mm 0.00 in0.0 mm 0.06 in1.5 mm
01:05 AM 52.5°F11.4°C 44.6°F7.0°C 76% 4.0 mph S6.4 kmh S 6.3 mph10.1 kmh 29.89 in1012.2 mb 0.11 in2.8 mm 0.60 in15.2 mm 0.11 in2.8 mm
01:10 AM 52.5°F11.4°C 46.4°F8.0°C 77% 3.0 mph S4.8 kmh S 5.4 mph8.7 kmh 29.89 in1012.2 mb 0.11 in2.8 mm 0.00 in0.0 mm 0.11 in2.8 mm
01:15 AM 52.3°F11.3°C 46.4°F8.0°C 77% 2.6 mph SW4.2 kmh SW 7.4 mph11.9 kmh 29.89 in1012.2 mb 0.11 in2.8 mm 0.00 in0.0 mm 0.11 in2.8 mm
01:20 AM 52.3°F11.3°C 46.4°F8.0°C 77% 2.5 mph SSW4.0 kmh SSW 7.4 mph11.9 kmh 29.89 in1012.2 mb 0.11 in2.8 mm 0.00 in0.0 mm 0.11 in2.8 mm
01:25 AM 52.3°F11.3°C 46.4°F8.0°C 78% 2.3 mph SSW3.7 kmh SSW 6.5 mph10.5 kmh 29.86 in1011.2 mb 0.11 in2.8 mm 0.00 in0.0 mm 0.11 in2.8 mm
01:30 AM 52.3°F11.3°C 46.4°F8.0°C 77% 2.9 mph SSW4.7 kmh SSW 6.5 mph10.5 kmh 29.86 in1011.2 mb 0.11 in2.8 mm 0.00 in0.0 mm 0.11 in2.8 mm
01:35 AM 52.3°F11.3°C 46.4°F8.0°C 78% 2.4 mph SW3.9 kmh SW 4.3 mph6.9 kmh 29.86 in1011.2 mb 0.11 in2.8 mm 0.00 in0.0 mm 0.11 in2.8 mm
01:40 AM 52.3°F11.3°C 46.4°F8.0°C 78% 1.9 mph SW3.1 kmh SW 4.3 mph6.9 kmh 29.86 in1011.2 mb 0.11 in2.8 mm 0.00 in0.0 mm 0.11 in2.8 mm
01:45 AM 52.3°F11.3°C 46.4°F8.0°C 77% 2.7 mph SW4.3 kmh SW 5.6 mph9.0 kmh 29.86 in1011.2 mb 0.11 in2.8 mm 0.00 in0.0 mm 0.11 in2.8 mm
01:50 AM 52.5°F11.4°C 46.4°F8.0°C 78% 2.6 mph SSW4.2 kmh SSW 5.6 mph9.0 kmh 29.86 in1011.2 mb 0.11 in2.8 mm 0.00 in0.0 mm 0.11 in2.8 mm
01:55 AM 52.5°F11.4°C 46.4°F8.0°C 78% 3.2 mph SSW5.1 kmh SSW 6.5 mph10.5 kmh 29.86 in1011.2 mb 0.06 in1.5 mm 0.00 in0.0 mm 0.11 in2.8 mm
02:00 AM 52.5°F11.4°C 46.4°F8.0°C 78% 3.7 mph SSW6.0 kmh SSW 6.5 mph10.5 kmh 29.86 in1011.2 mb 0.06 in1.5 mm 0.00 in0.0 mm 0.11 in2.8 mm
02:05 AM 52.5°F11.4°C 46.4°F8.0°C 78% 3.0 mph SW4.8 kmh SW 6.0 mph9.7 kmh 29.86 in1011.2 mb 0.00 in0.0 mm 0.00 in0.0 mm 0.11 in2.8 mm
02:10 AM 52.5°F11.4°C 46.4°F8.0°C 78% 2.6 mph SW4.2 kmh SW 3.8 mph6.1 kmh 29.86 in1011.2 mb 0.00 in0.0 mm 0.00 in0.0 mm 0.11 in2.8 mm
02:15 AM 52.5°F11.4°C 46.4°F8.0°C 79% 3.3 mph SSW5.3 kmh SSW 5.4 mph8.7 kmh 29.86 in1011.2 mb 0.00 in0.0 mm 0.00 in0.0 mm 0.11 in2.8 mm
02:20 AM 52.5°F11.4°C 46.4°F8.0°C 79% 3.1 mph S5.0 kmh S 5.4 mph8.7 kmh 29.86 in1011.2 mb 0.00 in0.0 mm 0.00 in0.0 mm 0.11 in2.8 mm
02:25 AM 52.7°F11.5°C 46.4°F8.0°C 79% 3.0 mph SSW4.8 kmh SSW 5.4 mph8.7 kmh 29.86 in1011.2 mb 0.00 in0.0 mm 0.00 in0.0 mm 0.11 in2.8 mm
02:30 AM 52.7°F11.5°C 46.4°F8.0°C 79% 2.3 mph SW3.7 kmh SW 5.4 mph8.7 kmh 29.86 in1011.2 mb 0.00 in0.0 mm 0.00 in0.0 mm 0.11 in2.8 mm
02:35 AM 52.7°F11.5°C 46.4°F8.0°C 79% 1.3 mph SW2.1 kmh SW 3.1 mph5.0 kmh 29.86 in1011.2 mb 0.00 in0.0 mm 0.00 in0.0 mm 0.11 in2.8 mm
02:40 AM 52.7°F11.5°C 46.4°F8.0°C 79% 1.7 mph SW2.7 kmh SW 4.3 mph6.9 kmh 29.86 in1011.2 mb 0.00 in0.0 mm 0.00 in0.0 mm 0.11 in2.8 mm
02:45 AM 52.7°F11.5°C 46.4°F8.0°C 79% 2.4 mph S3.9 kmh S 4.3 mph6.9 kmh 29.86 in1011.2 mb 0.00 in0.0 mm 0.00 in0.0 mm 0.11 in2.8 mm
02:50 AM 52.7°F11.5°C 46.4°F8.0°C 79% 3.1 mph S5.0 kmh S 5.4 mph8.7 kmh 29.86 in1011.2 mb 0.00 in0.0 mm 0.00 in0.0 mm 0.11 in2.8 mm
02:55 AM 52.9°F11.6°C 46.4°F8.0°C 79% 3.0 mph S4.8 kmh S 5.4 mph8.7 kmh 29.83 in1010.2 mb 0.00 in0.0 mm 0.00 in0.0 mm 0.11 in2.8 mm
03:00 AM 52.9°F11.6°C 46.4°F8.0°C 79% 3.6 mph S5.8 kmh S 7.8 mph12.6 kmh 29.83 in1010.2 mb 0.00 in0.0 mm 0.00 in0.0 mm 0.11 in2.8 mm
03:05 AM 53.1°F11.7°C 46.4°F8.0°C 79% 3.7 mph S6.0 kmh S 7.8 mph12.6 kmh 29.83 in1010.2 mb 0.00 in0.0 mm 0.00 in0.0 mm 0.11 in2.8 mm
03:10 AM 53.1°F11.7°C 46.4°F8.0°C 79% 3.3 mph S5.3 kmh S 5.8 mph9.3 kmh 29.83 in1010.2 mb 0.00 in0.0 mm 0.00 in0.0 mm 0.11 in2.8 mm
03:15 AM 52.9°F11.6°C 48.2°F9.0°C 80% 3.5 mph S5.6 kmh S 5.8 mph9.3 kmh 29.83 in1010.2 mb 0.00 in0.0 mm 0.00 in0.0 mm 0.11 in2.8 mm
03:20 AM 53.1°F11.7°C 46.4°F8.0°C 79% 3.6 mph S5.8 kmh S 5.8 mph9.3 kmh 29.83 in1010.2 mb 0.00 in0.0 mm 0.00 in0.0 mm 0.11 in2.8 mm
03:25 AM 53.1°F11.7°C 46.4°F8.0°C 79% 3.7 mph S6.0 kmh S 4.9 mph7.9 kmh 29.83 in1010.2 mb 0.00 in0.0 mm 0.00 in0.0 mm 0.11 in2.8 mm
03:30 AM 53.2°F11.8°C 46.4°F8.0°C 79% 5.1 mph S8.2 kmh S 9.8 mph15.8 kmh 29.83 in1010.2 mb 0.00 in0.0 mm 0.00 in0.0 mm 0.11 in2.8 mm
03:35 AM 53.2°F11.8°C 46.4°F8.0°C 79% 5.5 mph S8.9 kmh S 9.8 mph15.8 kmh 29.83 in1010.2 mb 0.00 in0.0 mm 0.00 in0.0 mm 0.11 in2.8 mm
03:40 AM 53.2°F11.8°C 46.4°F8.0°C 79% 5.2 mph S8.4 kmh S 8.9 mph14.3 kmh 29.80 in1009.1 mb 0.00 in0.0 mm 0.00 in0.0 mm 0.11 in2.8 mm
03:45 AM 53.2°F11.8°C 46.4°F8.0°C 79% 4.8 mph S7.7 kmh S 8.9 mph14.3 kmh 29.80 in1009.1 mb 0.00 in0.0 mm 0.00 in0.0 mm 0.11 in2.8 mm
03:50 AM 53.4°F11.9°C 48.2°F9.0°C 80% 4.7 mph S7.6 kmh S 8.5 mph13.7 kmh 29.80 in1009.1 mb 0.00 in0.0 mm 0.00 in0.0 mm 0.11 in2.8 mm
03:55 AM 53.6°F12.0°C 48.2°F9.0°C 79% 5.2 mph SSW8.4 kmh SSW 8.5 mph13.7 kmh 29.77 in1008.1 mb 0.00 in0.0 mm 0.00 in0.0 mm 0.11 in2.8 mm
04:00 AM 53.8°F12.1°C 48.2°F9.0°C 80% 4.6 mph S7.4 kmh S 6.3 mph10.1 kmh 29.77 in1008.1 mb 0.00 in0.0 mm 0.00 in0.0 mm 0.11 in2.8 mm
04:05 AM 53.8°F12.1°C 48.2°F9.0°C 80% 3.6 mph SSE5.8 kmh SSE 6.3 mph10.1 kmh 29.77 in1008.1 mb 0.00 in0.0 mm 0.00 in0.0 mm 0.11 in2.8 mm
04:10 AM 54.0°F12.2°C 48.2°F9.0°C 80% 3.9 mph S6.3 kmh S 7.2 mph11.6 kmh 29.77 in1008.1 mb 0.00 in0.0 mm 0.00 in0.0 mm 0.11 in2.8 mm
04:15 AM 54.1°F12.3°C 48.2°F9.0°C 80% 5.2 mph SSW8.4 kmh SSW 12.5 mph20.1 kmh 29.77 in1008.1 mb 0.00 in0.0 mm 0.00 in0.0 mm 0.11 in2.8 mm
04:20 AM 54.1°F12.3°C 48.2°F9.0°C 80% 5.0 mph SSW8.0 kmh SSW 12.5 mph20.1 kmh 29.77 in1008.1 mb 0.00 in0.0 mm 0.00 in0.0 mm 0.11 in2.8 mm
04:25 AM 54.1°F12.3°C 48.2°F9.0°C 81% 3.7 mph SSW6.0 kmh SSW 5.8 mph9.3 kmh 29.77 in1008.1 mb 0.00 in0.0 mm 0.00 in0.0 mm 0.11 in2.8 mm
04:30 AM 54.3°F12.4°C 48.2°F9.0°C 80% 4.5 mph SW7.2 kmh SW 8.1 mph13.0 kmh 29.77 in1008.1 mb 0.00 in0.0 mm 0.00 in0.0 mm 0.11 in2.8 mm
04:35 AM 54.5°F12.5°C 50.0°F10.0°C 81% 5.8 mph SW9.3 kmh SW 10.1 mph16.3 kmh 29.77 in1008.1 mb 0.00 in0.0 mm 0.00 in0.0 mm 0.11 in2.8 mm
04:40 AM 54.7°F12.6°C 50.0°F10.0°C 81% 5.8 mph SW9.3 kmh SW 10.1 mph16.3 kmh 29.77 in1008.1 mb 0.00 in0.0 mm 0.00 in0.0 mm 0.11 in2.8 mm
04:45 AM 54.7°F12.6°C 50.0°F10.0°C 81% 6.6 mph SW10.6 kmh SW 10.1 mph16.3 kmh 29.77 in1008.1 mb 0.00 in0.0 mm 0.00 in0.0 mm 0.11 in2.8 mm
04:50 AM 54.7°F12.6°C 50.0°F10.0°C 80% 5.2 mph SSW8.4 kmh SSW 10.1 mph16.3 kmh 29.77 in1008.1 mb 0.00 in0.0 mm 0.00 in0.0 mm 0.11 in2.8 mm
04:55 AM 54.5°F12.5°C 50.0°F10.0°C 81% 3.8 mph S6.1 kmh S 7.8 mph12.6 kmh 29.77 in1008.1 mb 0.00 in0.0 mm 0.00 in0.0 mm 0.11 in2.8 mm
05:00 AM 54.5°F12.5°C 50.0°F10.0°C 82% 2.7 mph S4.3 kmh S 7.8 mph12.6 kmh 29.77 in1008.1 mb 0.00 in0.0 mm 0.00 in0.0 mm 0.11 in2.8 mm
05:05 AM 54.5°F12.5°C 50.0°F10.0°C 82% 0.7 mph SW1.1 kmh SW 2.9 mph4.7 kmh 29.77 in1008.1 mb 0.00 in0.0 mm 0.00 in0.0 mm 0.11 in2.8 mm
05:10 AM 54.5°F12.5°C 50.0°F10.0°C 82% 0.6 mph S1.0 kmh S 2.9 mph4.7 kmh 29.77 in1008.1 mb 0.00 in0.0 mm 0.00 in0.0 mm 0.11 in2.8 mm
05:15 AM 54.7°F12.6°C 50.0°F10.0°C 82% 1.7 mph SSE2.7 kmh SSE 3.1 mph5.0 kmh 29.77 in1008.1 mb 0.00 in0.0 mm 0.00 in0.0 mm 0.11 in2.8 mm
05:20 AM 54.7°F12.6°C 50.0°F10.0°C 82% 1.9 mph SE3.1 kmh SE 3.1 mph5.0 kmh 29.77 in1008.1 mb 0.00 in0.0 mm 0.00 in0.0 mm 0.11 in2.8 mm
05:25 AM 54.7°F12.6°C 50.0°F10.0°C 82% 2.1 mph S3.4 kmh S 4.0 mph6.4 kmh 29.77 in1008.1 mb 0.00 in0.0 mm 0.00 in0.0 mm 0.11 in2.8 mm
05:30 AM 54.9°F12.7°C 50.0°F10.0°C 82% 3.3 mph S5.3 kmh S 7.4 mph11.9 kmh 29.77 in1008.1 mb 0.00 in0.0 mm 0.00 in0.0 mm 0.11 in2.8 mm
05:35 AM 54.9°F12.7°C 50.0°F10.0°C 82% 3.0 mph S4.8 kmh S 7.4 mph11.9 kmh 29.77 in1008.1 mb 0.00 in0.0 mm 0.00 in0.0 mm 0.11 in2.8 mm
05:40 AM 55.0°F12.8°C 50.0°F10.0°C 83% 2.2 mph S3.5 kmh S 4.9 mph7.9 kmh 29.77 in1008.1 mb 0.00 in0.0 mm 0.00 in0.0 mm 0.11 in2.8 mm
05:45 AM 55.2°F12.9°C 50.0°F10.0°C 83% 2.3 mph S3.7 kmh S 3.8 mph6.1 kmh 29.77 in1008.1 mb 0.00 in0.0 mm 0.00 in0.0 mm 0.11 in2.8 mm
05:50 AM 55.4°F13.0°C 50.0°F10.0°C 82% 3.2 mph SSW5.1 kmh SSW 5.4 mph8.7 kmh 29.77 in1008.1 mb 0.00 in0.0 mm 0.00 in0.0 mm 0.11 in2.8 mm
05:55 AM 55.6°F13.1°C 50.0°F10.0°C 83% 3.5 mph SSW5.6 kmh SSW 5.6 mph9.0 kmh 29.77 in1008.1 mb 0.00 in0.0 mm 0.00 in0.0 mm 0.11 in2.8 mm
06:00 AM 55.8°F13.2°C 51.8°F11.0°C 83% 2.4 mph SSW3.9 kmh SSW 5.6 mph9.0 kmh 29.77 in1008.1 mb 0.00 in0.0 mm 0.00 in0.0 mm 0.11 in2.8 mm
06:05 AM 55.9°F13.3°C 51.8°F11.0°C 83% 1.8 mph SW2.9 kmh SW 3.6 mph5.8 kmh 29.77 in1008.1 mb 0.00 in0.0 mm 0.00 in0.0 mm 0.11 in2.8 mm
06:10 AM 56.3°F13.5°C 51.8°F11.0°C 83% 3.2 mph SW5.1 kmh SW 6.0 mph9.7 kmh 29.77 in1008.1 mb 0.00 in0.0 mm 0.00 in0.0 mm 0.11 in2.8 mm
06:15 AM 56.5°F13.6°C 51.8°F11.0°C 83% 3.0 mph SSW4.8 kmh SSW 6.0 mph9.7 kmh 29.77 in1008.1 mb 0.00 in0.0 mm 0.00 in0.0 mm 0.11 in2.8 mm
06:20 AM 56.5°F13.6°C 51.8°F11.0°C 84% 2.0 mph S3.2 kmh S 3.6 mph5.8 kmh 29.77 in1008.1 mb 0.00 in0.0 mm 0.00 in0.0 mm 0.11 in2.8 mm
06:25 AM 56.5°F13.6°C 51.8°F11.0°C 84% 1.1 mph SSE1.8 kmh SSE 2.7 mph4.3 kmh 29.77 in1008.1 mb 0.00 in0.0 mm 0.00 in0.0 mm 0.11 in2.8 mm
06:30 AM 56.5°F13.6°C 51.8°F11.0°C 84% 0.5 mph SE0.8 kmh SE 2.5 mph4.0 kmh 29.77 in1008.1 mb 0.00 in0.0 mm 0.00 in0.0 mm 0.11 in2.8 mm
06:35 AM 56.7°F13.7°C 51.8°F11.0°C 84% 1.8 mph SSE2.9 kmh SSE 4.0 mph6.4 kmh 29.77 in1008.1 mb 0.00 in0.0 mm 0.00 in0.0 mm 0.11 in2.8 mm
06:40 AM 56.8°F13.8°C 51.8°F11.0°C 84% 2.7 mph SSE4.3 kmh SSE 4.0 mph6.4 kmh 29.77 in1008.1 mb 0.00 in0.0 mm 0.00 in0.0 mm 0.11 in2.8 mm
06:45 AM 57.0°F13.9°C 53.6°F12.0°C 84% 2.8 mph SSE4.5 kmh SSE 4.9 mph7.9 kmh 29.77 in1008.1 mb 0.00 in0.0 mm 0.00 in0.0 mm 0.11 in2.8 mm
06:50 AM 57.2°F14.0°C 53.6°F12.0°C 84% 2.9 mph SSE4.7 kmh SSE 4.9 mph7.9 kmh 29.77 in1008.1 mb 0.00 in0.0 mm 0.00 in0.0 mm 0.11 in2.8 mm
06:55 AM 57.2°F14.0°C 53.6°F12.0°C 84% 1.9 mph SSE3.1 kmh SSE 2.9 mph4.7 kmh 29.77 in1008.1 mb 0.00 in0.0 mm 0.00 in0.0 mm 0.11 in2.8 mm
07:00 AM 57.6°F14.2°C 53.6°F12.0°C 84% 2.1 mph S3.4 kmh S 4.9 mph7.9 kmh 29.77 in1008.1 mb 0.00 in0.0 mm 0.00 in0.0 mm 0.11 in2.8 mm
07:05 AM 57.7°F14.3°C 53.6°F12.0°C 84% 3.0 mph SSW4.8 kmh SSW 4.9 mph7.9 kmh 29.77 in1008.1 mb 0.00 in0.0 mm 0.00 in0.0 mm 0.11 in2.8 mm
07:10 AM 58.1°F14.5°C 53.6°F12.0°C 84% 3.4 mph SSW5.5 kmh SSW 6.0 mph9.7 kmh 29.77 in1008.1 mb 0.00 in0.0 mm 0.00 in0.0 mm 0.11 in2.8 mm
07:15 AM 58.3°F14.6°C 53.6°F12.0°C 84% 3.4 mph SW5.5 kmh SW 6.0 mph9.7 kmh 29.77 in1008.1 mb 0.00 in0.0 mm 0.00 in0.0 mm 0.11 in2.8 mm
07:20 AM 58.6°F14.8°C 53.6°F12.0°C 83% 4.1 mph SW6.6 kmh SW 8.1 mph13.0 kmh 29.77 in1008.1 mb 0.00 in0.0 mm 0.00 in0.0 mm 0.11 in2.8 mm
07:25 AM 59.0°F15.0°C 55.4°F13.0°C 84% 4.5 mph SW7.2 kmh SW 8.1 mph13.0 kmh 29.77 in1008.1 mb 0.00 in0.0 mm 0.00 in0.0 mm 0.11 in2.8 mm
07:30 AM 59.2°F15.1°C 53.6°F12.0°C 83% 4.8 mph SW7.7 kmh SW 8.1 mph13.0 kmh 29.77 in1008.1 mb 0.00 in0.0 mm 0.00 in0.0 mm 0.11 in2.8 mm
07:35 AM 59.2°F15.1°C 55.4°F13.0°C 84% 4.0 mph SW6.4 kmh SW 6.5 mph10.5 kmh 29.77 in1008.1 mb 0.00 in0.0 mm 0.00 in0.0 mm 0.11 in2.8 mm
07:40 AM 59.4°F15.2°C 55.4°F13.0°C 83% 4.3 mph SW6.9 kmh SW 8.5 mph13.7 kmh 29.77 in1008.1 mb 0.00 in0.0 mm 0.00 in0.0 mm 0.11 in2.8 mm
07:45 AM 59.5°F15.3°C 55.4°F13.0°C 84% 5.3 mph S8.5 kmh S 8.5 mph13.7 kmh 29.77 in1008.1 mb 0.00 in0.0 mm 0.00 in0.0 mm 0.11 in2.8 mm
07:50 AM 59.5°F15.3°C 55.4°F13.0°C 84% 5.0 mph SSW8.0 kmh SSW 7.4 mph11.9 kmh 29.77 in1008.1 mb 0.00 in0.0 mm 0.00 in0.0 mm 0.11 in2.8 mm
07:55 AM 59.7°F15.4°C 55.4°F13.0°C 84% 4.8 mph SW7.7 kmh SW 8.1 mph13.0 kmh 29.77 in1008.1 mb 0.00 in0.0 mm 0.00 in0.0 mm 0.11 in2.8 mm
08:00 AM 59.9°F15.5°C 55.4°F13.0°C 84% 5.2 mph SSW8.4 kmh SSW 8.5 mph13.7 kmh 29.77 in1008.1 mb 0.00 in0.0 mm 0.00 in0.0 mm 0.11 in2.8 mm
08:05 AM 60.1°F15.6°C 55.4°F13.0°C 84% 5.0 mph SSW8.0 kmh SSW 8.5 mph13.7 kmh 29.77 in1008.1 mb 0.00 in0.0 mm 0.00 in0.0 mm 0.11 in2.8 mm
08:10 AM 60.3°F15.7°C 55.4°F13.0°C 84% 4.3 mph S6.9 kmh S 6.0 mph9.7 kmh 29.80 in1009.1 mb 0.00 in0.0 mm 0.00 in0.0 mm 0.11 in2.8 mm
08:15 AM 60.4°F15.8°C 55.4°F13.0°C 84% 3.6 mph SSW5.8 kmh SSW 6.0 mph9.7 kmh 29.80 in1009.1 mb 0.00 in0.0 mm 0.00 in0.0 mm 0.11 in2.8 mm
08:20 AM 60.8°F16.0°C 55.4°F13.0°C 84% 4.2 mph SSW6.8 kmh SSW 6.0 mph9.7 kmh 29.80 in1009.1 mb 0.00 in0.0 mm 0.00 in0.0 mm 0.11 in2.8 mm
08:25 AM 60.8°F16.0°C 55.4°F13.0°C 84% 5.6 mph SSW9.0 kmh SSW 8.7 mph14.0 kmh 29.80 in1009.1 mb 0.00 in0.0 mm 0.00 in0.0 mm 0.11 in2.8 mm
08:30 AM 61.2°F16.2°C 57.2°F14.0°C 84% 5.7 mph SW9.2 kmh SW 8.7 mph14.0 kmh 29.80 in1009.1 mb 0.00 in0.0 mm 0.00 in0.0 mm 0.11 in2.8 mm
08:35 AM 61.5°F16.4°C 57.2°F14.0°C 84% 4.7 mph SW7.6 kmh SW 8.1 mph13.0 kmh 29.80 in1009.1 mb 0.00 in0.0 mm 0.00 in0.0 mm 0.11 in2.8 mm
08:40 AM 61.7°F16.5°C 57.2°F14.0°C 84% 4.2 mph SSW6.8 kmh SSW 5.8 mph9.3 kmh 29.80 in1009.1 mb 0.00 in0.0 mm 0.00 in0.0 mm 0.11 in2.8 mm
08:45 AM 61.9°F16.6°C 57.2°F14.0°C 84% 4.3 mph S6.9 kmh S 7.2 mph11.6 kmh 29.80 in1009.1 mb 0.00 in0.0 mm 0.00 in0.0 mm 0.11 in2.8 mm
08:50 AM 61.9°F16.6°C 57.2°F14.0°C 84% 4.1 mph SSW6.6 kmh SSW 7.2 mph11.6 kmh 29.80 in1009.1 mb 0.00 in0.0 mm 0.00 in0.0 mm 0.11 in2.8 mm
09:00 AM 63.3°F17.4°C 59.0°F15.0°C 84% 5.2 mph WSW8.4 kmh WSW 7.8 mph12.6 kmh 29.80 in1009.1 mb 0.00 in0.0 mm 0.00 in0.0 mm 0.11 in2.8 mm
09:05 AM 64.0°F17.8°C 59.0°F15.0°C 84% 5.4 mph SW8.7 kmh SW 7.8 mph12.6 kmh 29.80 in1009.1 mb 0.00 in0.0 mm 0.00 in0.0 mm 0.11 in2.8 mm
09:10 AM 63.9°F17.7°C 59.0°F15.0°C 83% 5.0 mph SW8.0 kmh SW 10.5 mph16.9 kmh 29.80 in1009.1 mb 0.00 in0.0 mm 0.00 in0.0 mm 0.11 in2.8 mm
09:15 AM 63.3°F17.4°C 57.2°F14.0°C 83% 6.3 mph WSW10.1 kmh WSW 10.5 mph16.9 kmh 29.80 in1009.1 mb 0.00 in0.0 mm 0.00 in0.0 mm 0.11 in2.8 mm
09:25 AM 63.3°F17.4°C 57.2°F14.0°C 83% 4.9 mph WSW7.9 kmh WSW 6.3 mph10.1 kmh 29.83 in1010.2 mb 0.00 in0.0 mm 0.00 in0.0 mm 0.11 in2.8 mm
09:30 AM 63.3°F17.4°C 57.2°F14.0°C 83% 4.2 mph WSW6.8 kmh WSW 7.6 mph12.2 kmh 29.83 in1010.2 mb 0.00 in0.0 mm 0.00 in0.0 mm 0.11 in2.8 mm
09:35 AM 64.2°F17.9°C 59.0°F15.0°C 83% 4.2 mph WSW6.8 kmh WSW 7.6 mph12.2 kmh 29.83 in1010.2 mb 0.00 in0.0 mm 0.00 in0.0 mm 0.11 in2.8 mm
09:40 AM 65.7°F18.7°C 59.0°F15.0°C 81% 4.6 mph WSW7.4 kmh WSW 7.4 mph11.9 kmh 29.83 in1010.2 mb 0.00 in0.0 mm 0.00 in0.0 mm 0.11 in2.8 mm
09:45 AM 66.2°F19.0°C 59.0°F15.0°C 79% 4.5 mph WSW7.2 kmh WSW 6.0 mph9.7 kmh 29.83 in1010.2 mb 0.00 in0.0 mm 0.00 in0.0 mm 0.11 in2.8 mm
09:50 AM 66.0°F18.9°C 59.0°F15.0°C 79% 5.0 mph W8.0 kmh W 7.8 mph12.6 kmh 29.83 in1010.2 mb 0.00 in0.0 mm 0.00 in0.0 mm 0.11 in2.8 mm
09:55 AM 66.2°F19.0°C 59.0°F15.0°C 77% 5.9 mph W9.5 kmh W 12.3 mph19.8 kmh 29.83 in1010.2 mb 0.00 in0.0 mm 0.00 in0.0 mm 0.11 in2.8 mm
10:00 AM 67.6°F19.8°C 59.0°F15.0°C 76% 6.7 mph W10.8 kmh W 12.3 mph19.8 kmh 29.83 in1010.2 mb 0.00 in0.0 mm 0.00 in0.0 mm 0.11 in2.8 mm
10:05 AM 65.8°F18.8°C 57.2°F14.0°C 76% 7.2 mph WSW11.6 kmh WSW 10.1 mph16.3 kmh 29.83 in1010.2 mb 0.00 in0.0 mm 0.00 in0.0 mm 0.11 in2.8 mm
10:10 AM 67.6°F19.8°C 59.0°F15.0°C 74% 5.2 mph WSW8.4 kmh WSW 10.1 mph16.3 kmh 29.83 in1010.2 mb 0.00 in0.0 mm 0.00 in0.0 mm 0.11 in2.8 mm
10:15 AM 68.2°F20.1°C 59.0°F15.0°C 71% 4.9 mph WSW7.9 kmh WSW 8.7 mph14.0 kmh 29.83 in1010.2 mb 0.00 in0.0 mm 0.00 in0.0 mm 0.11 in2.8 mm
10:20 AM 68.0°F20.0°C 59.0°F15.0°C 72% 6.3 mph WSW10.1 kmh WSW 10.3 mph16.6 kmh 29.83 in1010.2 mb 0.00 in0.0 mm 0.00 in0.0 mm 0.11 in2.8 mm
10:25 AM 67.3°F19.6°C 59.0°F15.0°C 72% 6.3 mph WSW10.1 kmh WSW 10.3 mph16.6 kmh 29.83 in1010.2 mb 0.00 in0.0 mm 0.00 in0.0 mm 0.11 in2.8 mm
10:30 AM 67.8°F19.9°C 59.0°F15.0°C 71% 6.0 mph WSW9.7 kmh WSW 10.3 mph16.6 kmh 29.83 in1010.2 mb 0.00 in0.0 mm 0.00 in0.0 mm 0.11 in2.8 mm
10:35 AM 70.3°F21.3°C 59.0°F15.0°C 68% 6.5 mph W10.5 kmh W 10.3 mph16.6 kmh 29.83 in1010.2 mb 0.00 in0.0 mm 0.00 in0.0 mm 0.11 in2.8 mm
10:40 AM 70.5°F21.4°C 59.0°F15.0°C 65% 9.1 mph WSW14.6 kmh WSW 15.4 mph24.8 kmh 29.86 in1011.2 mb 0.00 in0.0 mm 0.00 in0.0 mm 0.11 in2.8 mm
10:45 AM 71.6°F22.0°C 57.2°F14.0°C 62% 10.7 mph WSW17.2 kmh WSW 16.3 mph26.2 kmh 29.86 in1011.2 mb 0.00 in0.0 mm 0.00 in0.0 mm 0.11 in2.8 mm
10:50 AM 72.0°F22.2°C 57.2°F14.0°C 61% 9.6 mph WSW15.4 kmh WSW 16.3 mph26.2 kmh 29.86 in1011.2 mb 0.00 in0.0 mm 0.00 in0.0 mm 0.11 in2.8 mm
10:55 AM 72.1°F22.3°C 57.2°F14.0°C 59% 9.7 mph WSW15.6 kmh WSW 15.9 mph25.6 kmh 29.86 in1011.2 mb 0.00 in0.0 mm 0.00 in0.0 mm 0.11 in2.8 mm
11:00 AM 72.5°F22.5°C 57.2°F14.0°C 57% 9.8 mph WSW15.8 kmh WSW 16.3 mph26.2 kmh 29.86 in1011.2 mb 0.00 in0.0 mm 0.00 in0.0 mm 0.11 in2.8 mm
11:05 AM 72.3°F22.4°C 55.4°F13.0°C 54% 12.9 mph W20.8 kmh W 24.2 mph38.9 kmh 29.86 in1011.2 mb 0.00 in0.0 mm 0.00 in0.0 mm 0.11 in2.8 mm
11:10 AM 72.7°F22.6°C 55.4°F13.0°C 54% 13.4 mph W21.6 kmh W 24.2 mph38.9 kmh 29.86 in1011.2 mb 0.06 in1.5 mm 0.72 in18.3 mm 0.17 in4.3 mm
11:15 AM 73.6°F23.1°C 55.4°F13.0°C 54% 9.8 mph WSW15.8 kmh WSW 13.9 mph22.4 kmh 29.86 in1011.2 mb 0.06 in1.5 mm 0.00 in0.0 mm 0.17 in4.3 mm
11:20 AM 73.2°F22.9°C 55.4°F13.0°C 53% 10.5 mph WSW16.9 kmh WSW 13.9 mph22.4 kmh 29.86 in1011.2 mb 0.06 in1.5 mm 0.00 in0.0 mm 0.17 in4.3 mm
11:25 AM 72.7°F22.6°C 55.4°F13.0°C 52% 12.0 mph WSW19.3 kmh WSW 17.0 mph27.4 kmh 29.86 in1011.2 mb 0.06 in1.5 mm 0.00 in0.0 mm 0.17 in4.3 mm
11:30 AM 73.2°F22.9°C 55.4°F13.0°C 51% 11.7 mph WSW18.8 kmh WSW 17.0 mph27.4 kmh 29.86 in1011.2 mb 0.06 in1.5 mm 0.00 in0.0 mm 0.17 in4.3 mm
11:35 AM 73.4°F23.0°C 53.6°F12.0°C 49% 10.7 mph WSW17.2 kmh WSW 15.4 mph24.8 kmh 29.86 in1011.2 mb 0.06 in1.5 mm 0.00 in0.0 mm 0.17 in4.3 mm
11:40 AM 73.8°F23.2°C 55.4°F13.0°C 50% 10.8 mph WSW17.4 kmh WSW 14.8 mph23.8 kmh 29.89 in1012.2 mb 0.06 in1.5 mm 0.00 in0.0 mm 0.17 in4.3 mm
11:45 AM 73.2°F22.9°C 53.6°F12.0°C 50% 9.9 mph WSW15.9 kmh WSW 14.8 mph23.8 kmh 29.89 in1012.2 mb 0.06 in1.5 mm 0.00 in0.0 mm 0.17 in4.3 mm
11:50 AM 69.8°F21.0°C 50.0°F10.0°C 50% 10.8 mph WSW17.4 kmh WSW 17.9 mph28.8 kmh 29.89 in1012.2 mb 0.06 in1.5 mm 0.00 in0.0 mm 0.17 in4.3 mm
11:55 AM 70.7°F21.5°C 51.8°F11.0°C 50% 12.4 mph WSW20.0 kmh WSW 17.9 mph28.8 kmh 29.89 in1012.2 mb 0.06 in1.5 mm 0.00 in0.0 mm 0.17 in4.3 mm
12:00 PM 72.9°F22.7°C 53.6°F12.0°C 50% 9.9 mph W15.9 kmh W 17.0 mph27.4 kmh 29.89 in1012.2 mb 0.06 in1.5 mm 0.00 in0.0 mm 0.17 in4.3 mm
12:05 PM 72.7°F22.6°C 53.6°F12.0°C 50% 8.1 mph W13.0 kmh W 13.9 mph22.4 kmh 29.89 in1012.2 mb 0.06 in1.5 mm 0.00 in0.0 mm 0.17 in4.3 mm
12:10 PM 73.2°F22.9°C 53.6°F12.0°C 50% 10.0 mph WSW16.1 kmh WSW 13.9 mph22.4 kmh 29.89 in1012.2 mb 0.00 in0.0 mm 0.00 in0.0 mm 0.17 in4.3 mm
12:15 PM 72.5°F22.5°C 53.6°F12.0°C 50% 11.8 mph WSW19.0 kmh WSW 19.0 mph30.6 kmh 29.89 in1012.2 mb 0.00 in0.0 mm 0.00 in0.0 mm 0.17 in4.3 mm
12:20 PM 71.1°F21.7°C 51.8°F11.0°C 49% 11.9 mph WSW19.2 kmh WSW 19.0 mph30.6 kmh 29.89 in1012.2 mb 0.00 in0.0 mm 0.00 in0.0 mm 0.17 in4.3 mm
12:25 PM 70.2°F21.2°C 51.8°F11.0°C 50% 11.3 mph WSW18.2 kmh WSW 19.0 mph30.6 kmh 29.89 in1012.2 mb 0.00 in0.0 mm 0.00 in0.0 mm 0.17 in4.3 mm
12:30 PM 72.0°F22.2°C 51.8°F11.0°C 49% 10.4 mph WSW16.7 kmh WSW 14.3 mph23.0 kmh 29.89 in1012.2 mb 0.00 in0.0 mm 0.00 in0.0 mm 0.17 in4.3 mm
12:35 PM 71.8°F22.1°C 51.8°F11.0°C 50% 7.7 mph WSW12.4 kmh WSW 13.2 mph21.2 kmh 29.89 in1012.2 mb 0.00 in0.0 mm 0.00 in0.0 mm 0.17 in4.3 mm
12:40 PM 73.0°F22.8°C 53.6°F12.0°C 50% 8.2 mph WSW13.2 kmh WSW 17.2 mph27.7 kmh 29.92 in1013.2 mb 0.00 in0.0 mm 0.00 in0.0 mm 0.17 in4.3 mm
12:45 PM 71.1°F21.7°C 51.8°F11.0°C 49% 10.3 mph WSW16.6 kmh WSW 17.2 mph27.7 kmh 29.92 in1013.2 mb 0.00 in0.0 mm 0.00 in0.0 mm 0.17 in4.3 mm
12:50 PM 69.8°F21.0°C 50.0°F10.0°C 49% 9.1 mph WSW14.6 kmh WSW 13.2 mph21.2 kmh 29.92 in1013.2 mb 0.00 in0.0 mm 0.00 in0.0 mm 0.17 in4.3 mm
12:55 PM 70.7°F21.5°C 51.8°F11.0°C 49% 9.0 mph WSW14.5 kmh WSW 13.2 mph21.2 kmh 29.92 in1013.2 mb 0.00 in0.0 mm 0.00 in0.0 mm 0.17 in4.3 mm
01:00 PM 72.3°F22.4°C 51.8°F11.0°C 49% 9.6 mph WSW15.4 kmh WSW 17.2 mph27.7 kmh 29.92 in1013.2 mb 0.00 in0.0 mm 0.00 in0.0 mm 0.17 in4.3 mm
01:05 PM 72.0°F22.2°C 51.8°F11.0°C 49% 9.9 mph W15.9 kmh W 17.2 mph27.7 kmh 29.92 in1013.2 mb 0.00 in0.0 mm 0.00 in0.0 mm 0.17 in4.3 mm
01:10 PM 72.3°F22.4°C 51.8°F11.0°C 49% 10.2 mph W16.4 kmh W 13.6 mph21.9 kmh 29.92 in1013.2 mb 0.00 in0.0 mm 0.00 in0.0 mm 0.17 in4.3 mm
01:15 PM 72.5°F22.5°C 53.6°F12.0°C 49% 9.8 mph W15.8 kmh W 15.7 mph25.3 kmh 29.92 in1013.2 mb 0.00 in0.0 mm 0.00 in0.0 mm 0.17 in4.3 mm
01:20 PM 71.8°F22.1°C 51.8°F11.0°C 49% 10.1 mph WSW16.3 kmh WSW 15.7 mph25.3 kmh 29.92 in1013.2 mb 0.00 in0.0 mm 0.00 in0.0 mm 0.17 in4.3 mm
01:25 PM 70.7°F21.5°C 51.8°F11.0°C 49% 9.9 mph W15.9 kmh W 12.5 mph20.1 kmh 29.92 in1013.2 mb 0.00 in0.0 mm 0.00 in0.0 mm 0.17 in4.3 mm
01:30 PM 70.5°F21.4°C 50.0°F10.0°C 49% 8.7 mph WSW14.0 kmh WSW 12.8 mph20.6 kmh 29.92 in1013.2 mb 0.00 in0.0 mm 0.00 in0.0 mm 0.17 in4.3 mm
01:35 PM 69.4°F20.8°C 50.0°F10.0°C 51% 9.2 mph WSW14.8 kmh WSW 15.4 mph24.8 kmh 29.92 in1013.2 mb 0.00 in0.0 mm 0.00 in0.0 mm 0.17 in4.3 mm
01:40 PM 68.9°F20.5°C 50.0°F10.0°C 51% 9.3 mph W15.0 kmh W 15.4 mph24.8 kmh 29.95 in1014.2 mb 0.00 in0.0 mm 0.00 in0.0 mm 0.17 in4.3 mm
01:45 PM 68.4°F20.2°C 50.0°F10.0°C 51% 10.5 mph W16.9 kmh W 16.8 mph27.0 kmh 29.95 in1014.2 mb 0.00 in0.0 mm 0.00 in0.0 mm 0.17 in4.3 mm
01:50 PM 68.2°F20.1°C 48.2°F9.0°C 50% 11.3 mph W18.2 kmh W 16.8 mph27.0 kmh 29.95 in1014.2 mb 0.00 in0.0 mm 0.00 in0.0 mm 0.17 in4.3 mm
01:55 PM 68.2°F20.1°C 48.2°F9.0°C 50% 11.8 mph W19.0 kmh W 22.4 mph36.0 kmh 29.95 in1014.2 mb 0.00 in0.0 mm 0.00 in0.0 mm 0.17 in4.3 mm
02:00 PM 69.6°F20.9°C 50.0°F10.0°C 50% 12.8 mph W20.6 kmh W 22.4 mph36.0 kmh 29.95 in1014.2 mb 0.00 in0.0 mm 0.00 in0.0 mm 0.17 in4.3 mm
02:05 PM 69.8°F21.0°C 50.0°F10.0°C 49% 12.5 mph W20.1 kmh W 19.7 mph31.7 kmh 29.95 in1014.2 mb 0.00 in0.0 mm 0.00 in0.0 mm 0.17 in4.3 mm
02:10 PM 69.8°F21.0°C 50.0°F10.0°C 49% 11.8 mph W19.0 kmh W 19.7 mph31.7 kmh 29.95 in1014.2 mb 0.00 in0.0 mm 0.00 in0.0 mm 0.17 in4.3 mm
02:15 PM 69.6°F20.9°C 50.0°F10.0°C 49% 12.3 mph WNW19.8 kmh WNW 17.4 mph28.0 kmh 29.95 in1014.2 mb 0.00 in0.0 mm 0.00 in0.0 mm 0.17 in4.3 mm
02:20 PM 69.8°F21.0°C 50.0°F10.0°C 48% 11.9 mph W19.2 kmh W 17.4 mph28.0 kmh 29.95 in1014.2 mb 0.00 in0.0 mm 0.00 in0.0 mm 0.17 in4.3 mm
02:25 PM 69.6°F20.9°C 50.0°F10.0°C 49% 10.4 mph W16.7 kmh W 16.3 mph26.2 kmh 29.95 in1014.2 mb 0.00 in0.0 mm 0.00 in0.0 mm 0.17 in4.3 mm
02:30 PM 69.4°F20.8°C 50.0°F10.0°C 49% 10.9 mph W17.5 kmh W 16.3 mph26.2 kmh 29.95 in1014.2 mb 0.00 in0.0 mm 0.00 in0.0 mm 0.17 in4.3 mm
02:35 PM 69.4°F20.8°C 50.0°F10.0°C 49% 10.3 mph WSW16.6 kmh WSW 13.4 mph21.6 kmh 29.95 in1014.2 mb 0.00 in0.0 mm 0.00 in0.0 mm 0.17 in4.3 mm
02:40 PM 69.1°F20.6°C 50.0°F10.0°C 49% 10.9 mph WSW17.5 kmh WSW 19.7 mph31.7 kmh 29.98 in1015.2 mb 0.00 in0.0 mm 0.00 in0.0 mm 0.17 in4.3 mm
02:45 PM 69.1°F20.6°C 50.0°F10.0°C 49% 10.6 mph W17.1 kmh W 19.7 mph31.7 kmh 29.98 in1015.2 mb 0.00 in0.0 mm 0.00 in0.0 mm 0.17 in4.3 mm
02:50 PM 69.3°F20.7°C 50.0°F10.0°C 49% 8.4 mph W13.5 kmh W 17.0 mph27.4 kmh 29.98 in1015.2 mb 0.00 in0.0 mm 0.00 in0.0 mm 0.17 in4.3 mm
02:55 PM 68.9°F20.5°C 50.0°F10.0°C 49% 8.5 mph WSW13.7 kmh WSW 13.0 mph20.9 kmh 29.98 in1015.2 mb 0.00 in0.0 mm 0.00 in0.0 mm 0.17 in4.3 mm
03:00 PM 68.2°F20.1°C 48.2°F9.0°C 49% 9.8 mph WSW15.8 kmh WSW 14.8 mph23.8 kmh 29.98 in1015.2 mb 0.00 in0.0 mm 0.00 in0.0 mm 0.17 in4.3 mm
03:05 PM 67.6°F19.8°C 48.2°F9.0°C 49% 11.2 mph WSW18.0 kmh WSW 17.0 mph27.4 kmh 29.98 in1015.2 mb 0.00 in0.0 mm 0.00 in0.0 mm 0.17 in4.3 mm
03:10 PM 68.2°F20.1°C 48.2°F9.0°C 49% 11.5 mph WSW18.5 kmh WSW 17.0 mph27.4 kmh 29.98 in1015.2 mb 0.00 in0.0 mm 0.00 in0.0 mm 0.17 in4.3 mm
03:15 PM 67.8°F19.9°C 48.2°F9.0°C 49% 9.4 mph WSW15.1 kmh WSW 15.4 mph24.8 kmh 29.98 in1015.2 mb 0.00 in0.0 mm 0.00 in0.0 mm 0.17 in4.3 mm
03:20 PM 67.1°F19.5°C 48.2°F9.0°C 50% 6.8 mph WSW10.9 kmh WSW 12.3 mph19.8 kmh 29.98 in1015.2 mb 0.00 in0.0 mm 0.00 in0.0 mm 0.17 in4.3 mm
03:25 PM 68.0°F20.0°C 48.2°F9.0°C 50% 8.0 mph W12.9 kmh W 17.0 mph27.4 kmh 29.98 in1015.2 mb 0.00 in0.0 mm 0.00 in0.0 mm 0.17 in4.3 mm
03:30 PM 66.9°F19.4°C 48.2°F9.0°C 50% 10.1 mph W16.3 kmh W 17.0 mph27.4 kmh 29.98 in1015.2 mb 0.00 in0.0 mm 0.00 in0.0 mm 0.17 in4.3 mm
03:35 PM 66.7°F19.3°C 48.2°F9.0°C 50% 9.9 mph WSW15.9 kmh WSW 17.0 mph27.4 kmh 29.98 in1015.2 mb 0.00 in0.0 mm 0.00 in0.0 mm 0.17 in4.3 mm
03:40 PM 66.6°F19.2°C 48.2°F9.0°C 51% 7.5 mph W12.1 kmh W 13.0 mph20.9 kmh 29.98 in1015.2 mb 0.00 in0.0 mm 0.00 in0.0 mm 0.17 in4.3 mm
03:45 PM 66.7°F19.3°C 48.2°F9.0°C 51% 7.1 mph W11.4 kmh W 10.7 mph17.2 kmh 29.98 in1015.2 mb 0.00 in0.0 mm 0.00 in0.0 mm 0.17 in4.3 mm
03:50 PM 66.6°F19.2°C 48.2°F9.0°C 51% 6.9 mph W11.1 kmh W 10.3 mph16.6 kmh 29.98 in1015.2 mb 0.00 in0.0 mm 0.00 in0.0 mm 0.17 in4.3 mm
03:55 PM 66.7°F19.3°C 48.2°F9.0°C 52% 8.7 mph WSW14.0 kmh WSW 12.8 mph20.6 kmh 29.98 in1015.2 mb 0.00 in0.0 mm 0.00 in0.0 mm 0.17 in4.3 mm
04:00 PM 66.4°F19.1°C 48.2°F9.0°C 52% 8.5 mph WSW13.7 kmh WSW 12.8 mph20.6 kmh 29.98 in1015.2 mb 0.00 in0.0 mm 0.00 in0.0 mm 0.17 in4.3 mm
04:05 PM 65.7°F18.7°C 48.2°F9.0°C 53% 7.8 mph WSW12.6 kmh WSW 11.0 mph17.7 kmh 29.98 in1015.2 mb 0.00 in0.0 mm 0.00 in0.0 mm 0.17 in4.3 mm
04:10 PM 65.5°F18.6°C 48.2°F9.0°C 53% 9.2 mph W14.8 kmh W 12.3 mph19.8 kmh 29.98 in1015.2 mb 0.00 in0.0 mm 0.00 in0.0 mm 0.17 in4.3 mm
04:15 PM 65.3°F18.5°C 48.2°F9.0°C 53% 8.9 mph WSW14.3 kmh WSW 12.3 mph19.8 kmh 29.98 in1015.2 mb 0.00 in0.0 mm 0.00 in0.0 mm 0.17 in4.3 mm
04:20 PM 64.9°F18.3°C 48.2°F9.0°C 53% 6.6 mph W10.6 kmh W 8.7 mph14.0 kmh 29.98 in1015.2 mb 0.00 in0.0 mm 0.00 in0.0 mm 0.17 in4.3 mm
04:25 PM 64.9°F18.3°C 48.2°F9.0°C 54% 7.4 mph WSW11.9 kmh WSW 15.2 mph24.5 kmh 29.98 in1015.2 mb 0.00 in0.0 mm 0.00 in0.0 mm 0.17 in4.3 mm
04:30 PM 64.9°F18.3°C 48.2°F9.0°C 54% 7.6 mph WSW12.2 kmh WSW 15.2 mph24.5 kmh 29.98 in1015.2 mb 0.00 in0.0 mm 0.00 in0.0 mm 0.17 in4.3 mm
04:35 PM 65.3°F18.5°C 48.2°F9.0°C 54% 7.8 mph W12.6 kmh W 11.4 mph18.3 kmh 29.98 in1015.2 mb 0.00 in0.0 mm 0.00 in0.0 mm 0.17 in4.3 mm
04:40 PM 65.1°F18.4°C 48.2°F9.0°C 54% 7.9 mph W12.7 kmh W 11.0 mph17.7 kmh 30.01 in1016.3 mb 0.00 in0.0 mm 0.00 in0.0 mm 0.17 in4.3 mm
04:45 PM 64.9°F18.3°C 48.2°F9.0°C 54% 7.8 mph W12.6 kmh W 10.5 mph16.9 kmh 30.01 in1016.3 mb 0.00 in0.0 mm 0.00 in0.0 mm 0.17 in4.3 mm
04:50 PM 64.6°F18.1°C 48.2°F9.0°C 54% 8.3 mph WSW13.4 kmh WSW 12.1 mph19.5 kmh 30.01 in1016.3 mb 0.00 in0.0 mm 0.00 in0.0 mm 0.17 in4.3 mm
04:55 PM 64.2°F17.9°C 48.2°F9.0°C 55% 9.0 mph WSW14.5 kmh WSW 12.5 mph20.1 kmh 30.01 in1016.3 mb 0.00 in0.0 mm 0.00 in0.0 mm 0.17 in4.3 mm
05:00 PM 63.9°F17.7°C 48.2°F9.0°C 55% 9.1 mph WSW14.6 kmh WSW 13.2 mph21.2 kmh 30.01 in1016.3 mb 0.00 in0.0 mm 0.00 in0.0 mm 0.17 in4.3 mm
05:05 PM 63.5°F17.5°C 48.2°F9.0°C 55% 9.7 mph WSW15.6 kmh WSW 13.2 mph21.2 kmh 30.01 in1016.3 mb 0.00 in0.0 mm 0.00 in0.0 mm 0.17 in4.3 mm
05:10 PM 63.3°F17.4°C 46.4°F8.0°C 55% 8.0 mph WSW12.9 kmh WSW 13.2 mph21.2 kmh 30.01 in1016.3 mb 0.00 in0.0 mm 0.00 in0.0 mm 0.17 in4.3 mm
05:15 PM 63.3°F17.4°C 46.4°F8.0°C 55% 5.3 mph W8.5 kmh W 9.2 mph14.8 kmh 30.01 in1016.3 mb 0.00 in0.0 mm 0.00 in0.0 mm 0.17 in4.3 mm
05:20 PM 63.1°F17.3°C 48.2°F9.0°C 56% 3.9 mph W6.3 kmh W 7.6 mph12.2 kmh 30.01 in1016.3 mb 0.00 in0.0 mm 0.00 in0.0 mm 0.17 in4.3 mm
05:25 PM 63.0°F17.2°C 48.2°F9.0°C 56% 4.9 mph W7.9 kmh W 8.5 mph13.7 kmh 30.01 in1016.3 mb 0.00 in0.0 mm 0.00 in0.0 mm 0.17 in4.3 mm
05:30 PM 62.8°F17.1°C 46.4°F8.0°C 56% 6.3 mph WSW10.1 kmh WSW 8.5 mph13.7 kmh 30.01 in1016.3 mb 0.00 in0.0 mm 0.00 in0.0 mm 0.17 in4.3 mm
05:35 PM 62.6°F17.0°C 46.4°F8.0°C 56% 6.9 mph WSW11.1 kmh WSW 10.5 mph16.9 kmh 30.01 in1016.3 mb 0.00 in0.0 mm 0.00 in0.0 mm 0.17 in4.3 mm
05:40 PM 62.4°F16.9°C 48.2°F9.0°C 58% 8.3 mph WSW13.4 kmh WSW 10.5 mph16.9 kmh 30.01 in1016.3 mb 0.00 in0.0 mm 0.00 in0.0 mm 0.17 in4.3 mm
05:45 PM 62.1°F16.7°C 48.2°F9.0°C 58% 8.8 mph WSW14.2 kmh WSW 11.0 mph17.7 kmh 30.01 in1016.3 mb 0.00 in0.0 mm 0.00 in0.0 mm 0.17 in4.3 mm
05:50 PM 61.9°F16.6°C 48.2°F9.0°C 58% 9.4 mph WSW15.1 kmh WSW 13.4 mph21.6 kmh 30.01 in1016.3 mb 0.00 in0.0 mm 0.00 in0.0 mm 0.17 in4.3 mm
05:55 PM 61.7°F16.5°C 48.2°F9.0°C 59% 8.6 mph WSW13.8 kmh WSW 13.4 mph21.6 kmh 30.01 in1016.3 mb 0.00 in0.0 mm 0.00 in0.0 mm 0.17 in4.3 mm
06:00 PM 61.3°F16.3°C 48.2°F9.0°C 59% 5.9 mph W9.5 kmh W 9.4 mph15.1 kmh 30.01 in1016.3 mb 0.00 in0.0 mm 0.00 in0.0 mm 0.17 in4.3 mm
06:05 PM 61.2°F16.2°C 48.2°F9.0°C 59% 4.5 mph W7.2 kmh W 8.7 mph14.0 kmh 30.01 in1016.3 mb 0.00 in0.0 mm 0.00 in0.0 mm 0.17 in4.3 mm
06:10 PM 61.0°F16.1°C 48.2°F9.0°C 60% 3.6 mph WSW5.8 kmh WSW 6.0 mph9.7 kmh 30.04 in1017.3 mb 0.00 in0.0 mm 0.00 in0.0 mm 0.17 in4.3 mm
06:15 PM 61.0°F16.1°C 48.2°F9.0°C 60% 3.2 mph WSW5.1 kmh WSW 7.4 mph11.9 kmh 30.04 in1017.3 mb 0.00 in0.0 mm 0.00 in0.0 mm 0.17 in4.3 mm
06:20 PM 61.0°F16.1°C 48.2°F9.0°C 60% 3.6 mph WSW5.8 kmh WSW 7.4 mph11.9 kmh 30.04 in1017.3 mb 0.00 in0.0 mm 0.00 in0.0 mm 0.17 in4.3 mm
06:25 PM 60.8°F16.0°C 48.2°F9.0°C 60% 5.1 mph WSW8.2 kmh WSW 9.6 mph15.4 kmh 30.04 in1017.3 mb 0.00 in0.0 mm 0.00 in0.0 mm 0.17 in4.3 mm
06:30 PM 60.6°F15.9°C 48.2°F9.0°C 60% 7.7 mph WSW12.4 kmh WSW 10.1 mph16.3 kmh 30.04 in1017.3 mb 0.00 in0.0 mm 0.00 in0.0 mm 0.17 in4.3 mm
06:35 PM 60.3°F15.7°C 46.4°F8.0°C 60% 7.9 mph WSW12.7 kmh WSW 10.1 mph16.3 kmh 30.04 in1017.3 mb 0.00 in0.0 mm 0.00 in0.0 mm 0.17 in4.3 mm
06:40 PM 60.3°F15.7°C 46.4°F8.0°C 61% 6.8 mph W10.9 kmh W 10.1 mph16.3 kmh 30.04 in1017.3 mb 0.00 in0.0 mm 0.00 in0.0 mm 0.17 in4.3 mm
06:45 PM 60.1°F15.6°C 46.4°F8.0°C 61% 5.6 mph WSW9.0 kmh WSW 8.5 mph13.7 kmh 30.04 in1017.3 mb 0.00 in0.0 mm 0.00 in0.0 mm 0.17 in4.3 mm
06:50 PM 60.1°F15.6°C 46.4°F8.0°C 61% 4.2 mph WSW6.8 kmh WSW 6.5 mph10.5 kmh 30.04 in1017.3 mb 0.00 in0.0 mm 0.00 in0.0 mm 0.17 in4.3 mm
06:55 PM 59.9°F15.5°C 46.4°F8.0°C 61% 3.3 mph S5.3 kmh S 5.6 mph9.0 kmh 30.04 in1017.3 mb 0.00 in0.0 mm 0.00 in0.0 mm 0.17 in4.3 mm
07:00 PM 59.7°F15.4°C 46.4°F8.0°C 62% 2.6 mph SSE4.2 kmh SSE 4.7 mph7.6 kmh 30.04 in1017.3 mb 0.00 in0.0 mm 0.00 in0.0 mm 0.17 in4.3 mm
07:05 PM 59.5°F15.3°C 46.4°F8.0°C 62% 2.2 mph SSW3.5 kmh SSW 3.4 mph5.5 kmh 30.04 in1017.3 mb 0.00 in0.0 mm 0.00 in0.0 mm 0.17 in4.3 mm
07:10 PM 59.4°F15.2°C 46.4°F8.0°C 62% 2.6 mph WSW4.2 kmh WSW 4.0 mph6.4 kmh 30.04 in1017.3 mb 0.00 in0.0 mm 0.00 in0.0 mm 0.17 in4.3 mm
07:15 PM 59.2°F15.1°C 46.4°F8.0°C 62% 2.8 mph WSW4.5 kmh WSW 5.4 mph8.7 kmh 30.04 in1017.3 mb 0.00 in0.0 mm 0.00 in0.0 mm 0.17 in4.3 mm
07:20 PM 59.2°F15.1°C 46.4°F8.0°C 63% 2.5 mph WSW4.0 kmh WSW 5.4 mph8.7 kmh 30.04 in1017.3 mb 0.00 in0.0 mm 0.00 in0.0 mm 0.17 in4.3 mm
07:25 PM 59.2°F15.1°C 46.4°F8.0°C 63% 3.2 mph SW5.1 kmh SW 7.4 mph11.9 kmh 30.07 in1018.3 mb 0.00 in0.0 mm 0.00 in0.0 mm 0.17 in4.3 mm
07:30 PM 59.2°F15.1°C 46.4°F8.0°C 63% 4.5 mph WSW7.2 kmh WSW 7.4 mph11.9 kmh 30.07 in1018.3 mb 0.00 in0.0 mm 0.00 in0.0 mm 0.17 in4.3 mm
07:35 PM 59.2°F15.1°C 46.4°F8.0°C 63% 4.5 mph WSW7.2 kmh WSW 6.5 mph10.5 kmh 30.07 in1018.3 mb 0.00 in0.0 mm 0.00 in0.0 mm 0.17 in4.3 mm
07:40 PM 59.2°F15.1°C 48.2°F9.0°C 64% 3.9 mph WSW6.3 kmh WSW 6.5 mph10.5 kmh 30.07 in1018.3 mb 0.00 in0.0 mm 0.00 in0.0 mm 0.17 in4.3 mm
07:45 PM 59.0°F15.0°C 48.2°F9.0°C 64% 4.1 mph WSW6.6 kmh WSW 5.8 mph9.3 kmh 30.07 in1018.3 mb 0.00 in0.0 mm 0.00 in0.0 mm 0.17 in4.3 mm
07:50 PM 59.0°F15.0°C 48.2°F9.0°C 64% 3.7 mph SW6.0 kmh SW 5.8 mph9.3 kmh 30.07 in1018.3 mb 0.00 in0.0 mm 0.00 in0.0 mm 0.17 in4.3 mm
07:55 PM 58.8°F14.9°C 48.2°F9.0°C 65% 2.9 mph SSW4.7 kmh SSW 4.9 mph7.9 kmh 30.07 in1018.3 mb 0.00 in0.0 mm 0.00 in0.0 mm 0.17 in4.3 mm
08:00 PM 58.5°F14.7°C 48.2°F9.0°C 65% 2.6 mph SSW4.2 kmh SSW 3.4 mph5.5 kmh 30.07 in1018.3 mb 0.00 in0.0 mm 0.00 in0.0 mm 0.17 in4.3 mm
08:05 PM 58.3°F14.6°C 48.2°F9.0°C 65% 2.4 mph SW3.9 kmh SW 3.4 mph5.5 kmh 30.07 in1018.3 mb 0.00 in0.0 mm 0.00 in0.0 mm 0.17 in4.3 mm
08:10 PM 58.5°F14.7°C 48.2°F9.0°C 65% 3.1 mph SW5.0 kmh SW 5.6 mph9.0 kmh 30.07 in1018.3 mb 0.00 in0.0 mm 0.00 in0.0 mm 0.17 in4.3 mm
08:15 PM 58.3°F14.6°C 48.2°F9.0°C 65% 3.0 mph WSW4.8 kmh WSW 5.6 mph9.0 kmh 30.07 in1018.3 mb 0.00 in0.0 mm 0.00 in0.0 mm 0.17 in4.3 mm
08:20 PM 58.3°F14.6°C 48.2°F9.0°C 65% 3.4 mph WSW5.5 kmh WSW 5.6 mph9.0 kmh 30.07 in1018.3 mb 0.00 in0.0 mm 0.00 in0.0 mm 0.17 in4.3 mm
08:25 PM 58.1°F14.5°C 48.2°F9.0°C 65% 5.2 mph W8.4 kmh W 7.6 mph12.2 kmh 30.07 in1018.3 mb 0.00 in0.0 mm 0.00 in0.0 mm 0.17 in4.3 mm
08:30 PM 58.1°F14.5°C 48.2°F9.0°C 66% 5.9 mph WSW9.5 kmh WSW 8.1 mph13.0 kmh 30.07 in1018.3 mb 0.00 in0.0 mm 0.00 in0.0 mm 0.17 in4.3 mm
08:35 PM 58.1°F14.5°C 48.2°F9.0°C 65% 6.4 mph WSW10.3 kmh WSW 9.8 mph15.8 kmh 30.07 in1018.3 mb 0.00 in0.0 mm 0.00 in0.0 mm 0.17 in4.3 mm
08:40 PM 57.9°F14.4°C 46.4°F8.0°C 66% 7.0 mph WSW11.3 kmh WSW 11.0 mph17.7 kmh 30.07 in1018.3 mb 0.00 in0.0 mm 0.00 in0.0 mm 0.17 in4.3 mm
08:45 PM 57.9°F14.4°C 46.4°F8.0°C 66% 6.4 mph WSW10.3 kmh WSW 11.0 mph17.7 kmh 30.07 in1018.3 mb 0.00 in0.0 mm 0.00 in0.0 mm 0.17 in4.3 mm
08:50 PM 57.9°F14.4°C 48.2°F9.0°C 67% 3.2 mph WSW5.1 kmh WSW 7.2 mph11.6 kmh 30.07 in1018.3 mb 0.00 in0.0 mm 0.00 in0.0 mm 0.17 in4.3 mm
08:55 PM 57.7°F14.3°C 48.2°F9.0°C 67% 2.8 mph SW4.5 kmh SW 5.4 mph8.7 kmh 30.07 in1018.3 mb 0.00 in0.0 mm 0.00 in0.0 mm 0.17 in4.3 mm
09:00 PM 57.7°F14.3°C 48.2°F9.0°C 67% 2.7 mph WSW4.3 kmh WSW 5.4 mph8.7 kmh 30.07 in1018.3 mb 0.00 in0.0 mm 0.00 in0.0 mm 0.17 in4.3 mm
09:05 PM 57.6°F14.2°C 48.2°F9.0°C 67% 1.6 mph W2.6 kmh W 3.8 mph6.1 kmh 30.07 in1018.3 mb 0.00 in0.0 mm 0.00 in0.0 mm 0.17 in4.3 mm
09:10 PM 57.6°F14.2°C 48.2°F9.0°C 68% 1.4 mph W2.3 kmh W 3.8 mph6.1 kmh 30.09 in1019.0 mb 0.00 in0.0 mm 0.00 in0.0 mm 0.17 in4.3 mm
09:15 PM 57.4°F14.1°C 48.2°F9.0°C 68% 1.9 mph WSW3.1 kmh WSW 4.9 mph7.9 kmh 30.09 in1019.0 mb 0.00 in0.0 mm 0.00 in0.0 mm 0.17 in4.3 mm
09:20 PM 57.4°F14.1°C 46.4°F8.0°C 67% 3.3 mph WSW5.3 kmh WSW 6.5 mph10.5 kmh 30.09 in1019.0 mb 0.00 in0.0 mm 0.00 in0.0 mm 0.17 in4.3 mm
09:25 PM 57.4°F14.1°C 46.4°F8.0°C 67% 3.7 mph WSW6.0 kmh WSW 6.5 mph10.5 kmh 30.09 in1019.0 mb 0.00 in0.0 mm 0.00 in0.0 mm 0.17 in4.3 mm
09:30 PM 57.4°F14.1°C 46.4°F8.0°C 67% 4.2 mph W6.8 kmh W 7.4 mph11.9 kmh 30.09 in1019.0 mb 0.00 in0.0 mm 0.00 in0.0 mm 0.17 in4.3 mm
09:35 PM 57.2°F14.0°C 48.2°F9.0°C 68% 4.9 mph W7.9 kmh W 7.4 mph11.9 kmh 30.09 in1019.0 mb 0.00 in0.0 mm 0.00 in0.0 mm 0.17 in4.3 mm
09:40 PM 57.2°F14.0°C 48.2°F9.0°C 68% 4.7 mph WSW7.6 kmh WSW 6.0 mph9.7 kmh 30.09 in1019.0 mb 0.00 in0.0 mm 0.00 in0.0 mm 0.17 in4.3 mm
09:45 PM 57.2°F14.0°C 48.2°F9.0°C 69% 3.1 mph WSW5.0 kmh WSW 5.8 mph9.3 kmh 30.09 in1019.0 mb 0.00 in0.0 mm 0.00 in0.0 mm 0.17 in4.3 mm
09:50 PM 57.0°F13.9°C 48.2°F9.0°C 69% 2.3 mph W3.7 kmh W 4.9 mph7.9 kmh 30.09 in1019.0 mb 0.00 in0.0 mm 0.00 in0.0 mm 0.17 in4.3 mm
09:55 PM 57.0°F13.9°C 48.2°F9.0°C 69% 2.7 mph WSW4.3 kmh WSW 5.8 mph9.3 kmh 30.09 in1019.0 mb 0.00 in0.0 mm 0.00 in0.0 mm 0.17 in4.3 mm
10:00 PM 57.2°F14.0°C 48.2°F9.0°C 68% 4.0 mph WSW6.4 kmh WSW 5.8 mph9.3 kmh 30.09 in1019.0 mb 0.00 in0.0 mm 0.00 in0.0 mm 0.17 in4.3 mm
10:05 PM 57.2°F14.0°C 48.2°F9.0°C 68% 4.6 mph WSW7.4 kmh WSW 6.5 mph10.5 kmh 30.09 in1019.0 mb 0.00 in0.0 mm 0.00 in0.0 mm 0.17 in4.3 mm
10:10 PM 57.0°F13.9°C 48.2°F9.0°C 69% 3.9 mph WSW6.3 kmh WSW 6.5 mph10.5 kmh 30.09 in1019.0 mb 0.00 in0.0 mm 0.00 in0.0 mm 0.17 in4.3 mm
10:15 PM 57.0°F13.9°C 48.2°F9.0°C 69% 2.8 mph WSW4.5 kmh WSW 4.3 mph6.9 kmh 30.09 in1019.0 mb 0.00 in0.0 mm 0.00 in0.0 mm 0.17 in4.3 mm
10:20 PM 56.8°F13.8°C 48.2°F9.0°C 70% 2.7 mph WNW4.3 kmh WNW 4.3 mph6.9 kmh 30.09 in1019.0 mb 0.00 in0.0 mm 0.00 in0.0 mm 0.17 in4.3 mm
10:25 PM 57.0°F13.9°C 48.2°F9.0°C 69% 2.5 mph W4.0 kmh W 4.3 mph6.9 kmh 30.09 in1019.0 mb 0.00 in0.0 mm 0.00 in0.0 mm 0.17 in4.3 mm
10:30 PM 57.0°F13.9°C 48.2°F9.0°C 69% 2.2 mph WSW3.5 kmh WSW 3.8 mph6.1 kmh 30.09 in1019.0 mb 0.00 in0.0 mm 0.00 in0.0 mm 0.17 in4.3 mm
10:35 PM 57.0°F13.9°C 48.2°F9.0°C 69% 2.2 mph SW3.5 kmh SW 3.8 mph6.1 kmh 30.09 in1019.0 mb 0.00 in0.0 mm 0.00 in0.0 mm 0.17 in4.3 mm
10:40 PM 56.8°F13.8°C 48.2°F9.0°C 70% 2.2 mph S3.5 kmh S 3.4 mph5.5 kmh 30.09 in1019.0 mb 0.00 in0.0 mm 0.00 in0.0 mm 0.17 in4.3 mm
10:45 PM 56.8°F13.8°C 48.2°F9.0°C 70% 2.2 mph SSE3.5 kmh SSE 3.4 mph5.5 kmh 30.09 in1019.0 mb 0.00 in0.0 mm 0.00 in0.0 mm 0.17 in4.3 mm
10:50 PM 56.7°F13.7°C 48.2°F9.0°C 70% 1.1 mph SE1.8 kmh SE 2.9 mph4.7 kmh 30.09 in1019.0 mb 0.00 in0.0 mm 0.00 in0.0 mm 0.17 in4.3 mm
10:55 PM 56.5°F13.6°C 48.2°F9.0°C 71% 0.7 mph ESE1.1 kmh ESE 1.6 mph2.6 kmh 30.09 in1019.0 mb 0.00 in0.0 mm 0.00 in0.0 mm 0.17 in4.3 mm
11:00 PM 56.3°F13.5°C 48.2°F9.0°C 71% 0.7 mph ESE1.1 kmh ESE 1.6 mph2.6 kmh 30.09 in1019.0 mb 0.00 in0.0 mm 0.00 in0.0 mm 0.17 in4.3 mm
11:05 PM 56.1°F13.4°C 48.2°F9.0°C 71% 0.2 mph ESE0.3 kmh ESE 1.3 mph2.1 kmh 30.09 in1019.0 mb 0.00 in0.0 mm 0.00 in0.0 mm 0.17 in4.3 mm
11:10 PM 56.1°F13.4°C 48.2°F9.0°C 72% 0.1 mph SSW0.2 kmh SSW 0.9 mph1.4 kmh 30.09 in1019.0 mb 0.00 in0.0 mm 0.00 in0.0 mm 0.17 in4.3 mm
11:15 PM 56.3°F13.5°C 48.2°F9.0°C 71% 0.6 mph WSW1.0 kmh WSW 2.5 mph4.0 kmh 30.09 in1019.0 mb 0.00 in0.0 mm 0.00 in0.0 mm 0.17 in4.3 mm
11:20 PM 56.3°F13.5°C 48.2°F9.0°C 71% 1.4 mph SW2.3 kmh SW 2.9 mph4.7 kmh 30.09 in1019.0 mb 0.00 in0.0 mm 0.00 in0.0 mm 0.17 in4.3 mm
11:25 PM 56.3°F13.5°C 48.2°F9.0°C 71% 1.7 mph SSW2.7 kmh SSW 2.9 mph4.7 kmh 30.09 in1019.0 mb 0.00 in0.0 mm 0.00 in0.0 mm 0.17 in4.3 mm
11:30 PM 56.5°F13.6°C 48.2°F9.0°C 71% 1.8 mph SSW2.9 kmh SSW 3.4 mph5.5 kmh 30.09 in1019.0 mb 0.00 in0.0 mm 0.00 in0.0 mm 0.17 in4.3 mm
11:35 PM 56.5°F13.6°C 48.2°F9.0°C 71% 1.9 mph SW3.1 kmh SW 3.4 mph5.5 kmh 30.09 in1019.0 mb 0.00 in0.0 mm 0.00 in0.0 mm 0.17 in4.3 mm
11:40 PM 56.5°F13.6°C 48.2°F9.0°C 71% 2.1 mph SSW3.4 kmh SSW 3.1 mph5.0 kmh 30.09 in1019.0 mb 0.00 in0.0 mm 0.00 in0.0 mm 0.17 in4.3 mm
11:45 PM 56.5°F13.6°C 48.2°F9.0°C 71% 2.4 mph S3.9 kmh S 3.1 mph5.0 kmh 30.09 in1019.0 mb 0.00 in0.0 mm 0.00 in0.0 mm 0.17 in4.3 mm
11:50 PM 56.5°F13.6°C 48.2°F9.0°C 71% 2.6 mph S4.2 kmh S 3.1 mph5.0 kmh 30.09 in1019.0 mb 0.00 in0.0 mm 0.00 in0.0 mm 0.17 in4.3 mm
11:55 PM 56.5°F13.6°C 48.2°F9.0°C 72% 2.0 mph S3.2 kmh S 3.1 mph5.0 kmh 30.09 in1019.0 mb 0.00 in0.0 mm 0.00 in0.0 mm 0.17 in4.3 mm